createdAt,value
2018-06-09T00:02:20.173Z,22.40
2018-06-09T00:04:48.368Z,22.40
2018-06-09T00:07:16.833Z,22.30
2018-06-09T00:09:45.035Z,22.30
2018-06-09T00:12:13.253Z,22.30
2018-06-09T00:14:41.485Z,22.30
2018-06-09T00:17:09.720Z,22.20
2018-06-09T00:19:37.921Z,22.20
2018-06-09T00:22:06.137Z,22.20
2018-06-09T00:24:34.357Z,22.20
2018-06-09T00:27:02.612Z,22.20
2018-06-09T00:29:30.938Z,22.20
2018-06-09T00:31:59.139Z,22.10
2018-06-09T00:34:27.349Z,22.00
2018-06-09T00:36:55.700Z,22.00
2018-06-09T00:39:23.929Z,22.00
2018-06-09T00:41:52.140Z,22.10
2018-06-09T00:44:20.368Z,22.10
2018-06-09T00:46:48.587Z,22.10
2018-06-09T00:49:16.792Z,22.20
2018-06-09T00:51:45.657Z,22.20
2018-06-09T00:54:13.864Z,22.20
2018-06-09T00:56:45.867Z,22.20
2018-06-09T00:59:14.126Z,22.10
2018-06-09T01:01:42.346Z,22.10
2018-06-09T01:04:10.549Z,22.10
2018-06-09T01:06:38.812Z,22.10
2018-06-09T01:09:08.500Z,22.10
2018-06-09T01:11:36.692Z,22.00
2018-06-09T01:14:04.953Z,22.00
2018-06-09T01:16:33.171Z,22.00
2018-06-09T01:19:01.410Z,21.90
2018-06-09T01:21:29.651Z,21.90
2018-06-09T01:23:57.852Z,21.80
2018-06-09T01:26:26.060Z,21.80
2018-06-09T01:28:54.259Z,21.70
2018-06-09T01:31:22.486Z,21.70
2018-06-09T01:33:50.697Z,21.70
2018-06-09T01:36:18.916Z,21.60
2018-06-09T01:38:47.152Z,21.50
2018-06-09T01:41:15.368Z,21.50
2018-06-09T01:43:43.649Z,21.50
2018-06-09T01:46:11.855Z,21.40
2018-06-09T01:48:40.056Z,21.50
2018-06-09T01:51:08.275Z,21.50
2018-06-09T01:53:36.483Z,21.50
2018-06-09T01:56:04.702Z,21.30
2018-06-09T01:58:32.899Z,21.20
2018-06-09T02:01:01.124Z,21.20
2018-06-09T02:03:29.308Z,21.10
2018-06-09T02:05:57.534Z,21.00
2018-06-09T02:08:25.744Z,20.90
2018-06-09T02:10:53.948Z,20.90
2018-06-09T02:13:22.191Z,20.90
2018-06-09T02:15:50.423Z,20.90
2018-06-09T02:18:18.652Z,21.00
2018-06-09T02:20:46.876Z,21.00
2018-06-09T02:23:15.108Z,20.90
2018-06-09T02:25:43.352Z,20.90
2018-06-09T02:28:12.333Z,20.90
2018-06-09T02:30:40.561Z,20.90
2018-06-09T02:33:08.888Z,20.90
2018-06-09T02:35:37.100Z,21.00
2018-06-09T02:38:05.419Z,21.00
2018-06-09T02:40:33.628Z,21.00
2018-06-09T02:43:01.898Z,21.00
2018-06-09T02:45:30.095Z,21.00
2018-06-09T02:47:58.291Z,21.00
2018-06-09T02:50:26.491Z,21.00
2018-06-09T02:52:54.695Z,20.90
2018-06-09T02:55:22.913Z,20.90
2018-06-09T02:57:51.133Z,20.90
2018-06-09T03:00:19.381Z,21.00
2018-06-09T03:02:47.585Z,20.90
2018-06-09T03:05:15.804Z,20.90
2018-06-09T03:07:44.038Z,20.80
2018-06-09T03:10:12.260Z,20.60
2018-06-09T03:12:40.475Z,20.60
2018-06-09T03:15:08.776Z,20.50
2018-06-09T03:17:36.971Z,20.50
2018-06-09T03:20:05.181Z,20.60
2018-06-09T03:22:33.379Z,20.50
2018-06-09T03:25:01.600Z,20.40
2018-06-09T03:27:29.818Z,20.40
2018-06-09T03:29:58.056Z,20.40
2018-06-09T03:32:26.282Z,20.30
2018-06-09T03:34:54.466Z,20.30
2018-06-09T03:37:22.726Z,20.20
2018-06-09T03:39:50.955Z,20.20
2018-06-09T03:42:19.178Z,20.20
2018-06-09T03:44:47.382Z,20.20
2018-06-09T03:47:15.588Z,20.20
2018-06-09T03:49:43.872Z,20.20
2018-06-09T03:52:12.377Z,20.20
2018-06-09T03:54:40.572Z,20.20
2018-06-09T03:57:08.775Z,20.40
2018-06-09T03:59:37.008Z,20.40
2018-06-09T04:02:05.415Z,20.40
2018-06-09T04:04:33.609Z,20.50
2018-06-09T04:07:01.813Z,20.50
2018-06-09T04:09:30.021Z,20.60
2018-06-09T04:11:58.243Z,20.60
2018-06-09T04:14:26.471Z,20.60
2018-06-09T04:16:54.672Z,20.50
2018-06-09T04:19:22.886Z,20.50
2018-06-09T04:21:51.108Z,20.50
2018-06-09T04:24:19.335Z,20.40
2018-06-09T04:26:47.533Z,20.40
2018-06-09T04:29:15.735Z,20.40
2018-06-09T04:31:43.939Z,20.40
2018-06-09T04:34:12.156Z,20.40
2018-06-09T04:36:40.428Z,20.40
2018-06-09T04:39:08.812Z,20.30
2018-06-09T04:41:37.020Z,20.40
2018-06-09T04:44:05.380Z,20.30
2018-06-09T04:46:33.579Z,20.40
2018-06-09T04:49:01.784Z,20.40
2018-06-09T04:51:30.006Z,20.50
2018-06-09T04:53:58.217Z,20.60
2018-06-09T04:56:26.416Z,20.60
2018-06-09T04:58:54.640Z,20.70
2018-06-09T05:01:22.840Z,20.80
2018-06-09T05:03:51.052Z,20.90
2018-06-09T05:06:19.266Z,21.00
2018-06-09T05:08:47.508Z,21.00
2018-06-09T05:11:15.705Z,21.10
2018-06-09T05:13:43.947Z,21.20
2018-06-09T05:16:12.328Z,21.10
2018-06-09T05:18:40.574Z,21.10
2018-06-09T05:21:08.781Z,21.00
2018-06-09T05:23:36.972Z,21.10
2018-06-09T05:26:05.272Z,21.10
2018-06-09T05:28:33.488Z,21.10
2018-06-09T05:31:01.741Z,21.00
2018-06-09T05:33:29.940Z,21.10
2018-06-09T05:35:58.245Z,21.10
2018-06-09T05:38:26.463Z,21.10
2018-06-09T05:43:22.804Z,21.20
2018-06-09T05:45:51.041Z,21.30
2018-06-09T05:48:19.277Z,21.30
2018-06-09T05:50:47.512Z,21.40
2018-06-09T05:53:15.724Z,21.50
2018-06-09T05:55:44.206Z,21.60
2018-06-09T05:58:12.408Z,21.70
2018-06-09T06:00:40.778Z,21.80
2018-06-09T06:03:09.117Z,21.90
2018-06-09T06:05:37.286Z,21.90
2018-06-09T06:08:05.561Z,22.00
2018-06-09T06:10:33.780Z,22.10
2018-06-09T06:13:01.989Z,22.10
2018-06-09T06:15:30.205Z,22.10
2018-06-09T06:17:58.399Z,22.20
2018-06-09T06:20:26.788Z,22.30
2018-06-09T06:22:55.568Z,22.30
2018-06-09T06:25:23.840Z,22.30
2018-06-09T06:27:52.087Z,22.40
2018-06-09T06:30:20.836Z,22.40
2018-06-09T06:32:49.048Z,22.50
2018-06-09T06:35:17.411Z,22.60
2018-06-09T06:37:45.738Z,22.60
2018-06-09T06:40:14.177Z,22.70
2018-06-09T06:42:42.494Z,22.70
2018-06-09T06:45:11.709Z,22.70
2018-06-09T06:47:39.948Z,22.80
2018-06-09T06:50:08.278Z,22.80
2018-06-09T06:52:36.698Z,22.90
2018-06-09T06:55:05.121Z,22.90
2018-06-09T06:57:33.331Z,23.00
2018-06-09T07:00:01.548Z,23.00
2018-06-09T07:02:29.741Z,23.10
2018-06-09T07:04:57.964Z,23.20
2018-06-09T07:07:26.172Z,23.20
2018-06-09T07:09:54.385Z,23.30
2018-06-09T07:12:22.584Z,23.30
2018-06-09T07:14:50.784Z,23.40
2018-06-09T07:17:18.975Z,23.40
2018-06-09T07:19:47.179Z,23.50
2018-06-09T07:22:15.434Z,23.50
2018-06-09T07:24:43.616Z,23.50
2018-06-09T07:27:11.831Z,23.60
2018-06-09T07:29:40.022Z,23.60
2018-06-09T07:32:08.255Z,23.70
2018-06-09T07:34:36.451Z,23.70
2018-06-09T07:37:04.684Z,23.80
2018-06-09T07:39:32.879Z,23.80
2018-06-09T07:42:01.115Z,23.90
2018-06-09T07:44:29.372Z,24.00
2018-06-09T07:46:57.684Z,24.00
2018-06-09T07:49:25.908Z,24.10
2018-06-09T07:51:54.129Z,24.10
2018-06-09T07:54:22.344Z,24.10
2018-06-09T07:56:50.556Z,24.20
2018-06-09T07:59:18.781Z,24.20
2018-06-09T08:01:46.995Z,24.20
2018-06-09T08:04:15.204Z,24.30
2018-06-09T08:06:43.421Z,24.30
2018-06-09T08:09:11.748Z,24.40
2018-06-09T08:11:40.131Z,24.40
2018-06-09T08:14:08.340Z,24.50
2018-06-09T08:16:36.581Z,24.50
2018-06-09T08:19:04.833Z,24.50
2018-06-09T08:21:33.062Z,24.60
2018-06-09T08:24:01.389Z,24.70
2018-06-09T08:26:29.588Z,24.70
2018-06-09T08:28:57.821Z,24.80
2018-06-09T08:31:26.017Z,24.80
2018-06-09T08:33:54.220Z,24.90
2018-06-09T08:36:22.477Z,24.90
2018-06-09T08:38:50.646Z,24.90
2018-06-09T08:41:18.844Z,25.00
2018-06-09T08:43:47.325Z,25.00
2018-06-09T08:46:15.528Z,25.10
2018-06-09T08:48:43.740Z,25.10
2018-06-09T08:51:11.936Z,25.10
2018-06-09T08:53:40.148Z,25.20
2018-06-09T08:56:08.493Z,25.20
2018-06-09T08:58:36.704Z,25.30
2018-06-09T09:01:04.997Z,25.30
2018-06-09T09:03:33.208Z,25.40
2018-06-09T09:06:01.427Z,25.40
2018-06-09T09:08:29.648Z,25.40
2018-06-09T09:10:57.840Z,25.50
2018-06-09T09:13:26.084Z,25.50
2018-06-09T09:15:54.301Z,25.70
2018-06-09T09:18:22.488Z,25.70
2018-06-09T09:20:50.699Z,25.80
2018-06-09T09:23:18.909Z,25.80
2018-06-09T09:25:47.143Z,25.90
2018-06-09T09:28:15.380Z,25.90
2018-06-09T09:30:43.628Z,25.90
2018-06-09T09:33:11.855Z,25.90
2018-06-09T09:35:40.052Z,26.00
2018-06-09T09:38:08.241Z,26.00
2018-06-09T09:40:36.440Z,26.00
2018-06-09T09:43:04.657Z,26.00
2018-06-09T09:45:32.863Z,26.00
2018-06-09T09:48:01.074Z,26.10
2018-06-09T09:50:29.316Z,26.20
2018-06-09T09:52:57.520Z,26.20
2018-06-09T09:55:25.749Z,26.20
2018-06-09T09:57:58.485Z,26.30
2018-06-09T10:00:32.019Z,26.40
2018-06-09T10:03:00.205Z,26.50
2018-06-09T10:05:28.418Z,26.60
2018-06-09T10:07:56.619Z,26.60
2018-06-09T10:10:24.822Z,26.70
2018-06-09T10:12:53.119Z,26.70
2018-06-09T10:15:21.311Z,26.80
2018-06-09T10:17:49.520Z,26.90
2018-06-09T10:22:45.827Z,26.90
2018-06-09T10:25:14.051Z,26.90
2018-06-09T10:27:42.255Z,27.00
2018-06-09T10:30:10.548Z,27.00
2018-06-09T10:32:38.752Z,27.00
2018-06-09T10:35:07.021Z,27.00
2018-06-09T10:37:35.240Z,27.10
2018-06-09T10:40:03.461Z,27.10
2018-06-09T10:42:31.655Z,27.20
2018-06-09T10:44:59.863Z,27.30
2018-06-09T10:47:28.071Z,27.20
2018-06-09T10:49:56.272Z,27.30
2018-06-09T10:52:24.466Z,27.20
2018-06-09T10:54:52.684Z,27.20
2018-06-09T10:57:20.891Z,27.20
2018-06-09T10:59:49.131Z,27.10
2018-06-09T11:02:17.342Z,27.10
2018-06-09T11:04:45.553Z,27.00
2018-06-09T11:07:13.760Z,27.10
2018-06-09T11:09:41.971Z,27.10
2018-06-09T11:12:10.400Z,27.20
2018-06-09T11:14:38.590Z,27.30
2018-06-09T11:17:06.792Z,27.30
2018-06-09T11:19:35.011Z,27.40
2018-06-09T11:22:03.260Z,27.50
2018-06-09T11:24:31.531Z,27.50
2018-06-09T11:26:59.689Z,27.50
2018-06-09T11:29:27.892Z,27.60
2018-06-09T11:31:56.096Z,27.60
2018-06-09T11:34:24.329Z,27.70
2018-06-09T11:36:52.528Z,27.70
2018-06-09T11:39:20.732Z,27.80
2018-06-09T11:41:48.949Z,27.80
2018-06-09T11:44:17.180Z,27.70
2018-06-09T11:46:45.388Z,27.80
2018-06-09T11:49:13.609Z,27.90
2018-06-09T11:51:41.849Z,27.90
2018-06-09T11:54:10.874Z,28.00
2018-06-09T11:56:39.076Z,28.10
2018-06-09T11:59:07.904Z,28.10
2018-06-09T12:01:36.137Z,28.20
2018-06-09T12:04:04.323Z,28.20
2018-06-09T12:06:32.533Z,28.20
2018-06-09T12:09:00.740Z,28.20
2018-06-09T12:11:28.942Z,28.30
2018-06-09T12:13:57.160Z,28.20
2018-06-09T12:16:25.369Z,28.20
2018-06-09T12:18:53.560Z,28.20
2018-06-09T12:21:21.769Z,28.20
2018-06-09T12:23:49.955Z,28.30
2018-06-09T12:26:18.160Z,28.30
2018-06-09T12:28:46.352Z,28.20
2018-06-09T12:31:14.550Z,28.20
2018-06-09T12:33:42.880Z,28.20
2018-06-09T12:36:11.061Z,28.10
2018-06-09T12:38:39.248Z,28.00
2018-06-09T12:41:07.448Z,28.00
2018-06-09T12:43:35.663Z,28.10
2018-06-09T12:46:03.900Z,28.10
2018-06-09T12:48:32.182Z,28.00
2018-06-09T12:51:00.338Z,28.00
2018-06-09T12:53:28.545Z,27.90
2018-06-09T12:55:56.751Z,27.90
2018-06-09T12:58:24.957Z,27.80
2018-06-09T13:00:53.168Z,27.80
2018-06-09T13:03:21.404Z,27.80
2018-06-09T13:05:49.650Z,27.80
2018-06-09T13:08:17.803Z,27.80
2018-06-09T13:10:46.000Z,27.80
2018-06-09T13:13:14.205Z,27.90
2018-06-09T13:15:42.403Z,27.80
2018-06-09T13:18:10.605Z,27.90
2018-06-09T13:20:38.800Z,27.90
2018-06-09T13:23:07.013Z,27.80
2018-06-09T13:25:35.240Z,27.80
2018-06-09T13:28:03.464Z,27.80
2018-06-09T13:30:31.693Z,27.70
2018-06-09T13:33:00.379Z,27.70
2018-06-09T13:35:28.593Z,27.70
2018-06-09T13:37:56.805Z,27.70
2018-06-09T13:42:53.005Z,27.70
2018-06-09T13:45:21.217Z,27.70
2018-06-09T13:47:49.415Z,27.70
2018-06-09T13:50:17.620Z,27.70
2018-06-09T13:52:45.816Z,27.70
2018-06-09T13:55:14.016Z,27.80
2018-06-09T13:57:42.208Z,27.80
2018-06-09T14:00:10.432Z,27.70
2018-06-09T14:02:38.639Z,27.70
2018-06-09T14:05:06.900Z,27.60
2018-06-09T14:07:35.099Z,27.60
2018-06-09T14:10:03.357Z,27.60
2018-06-09T14:12:31.569Z,27.60
2018-06-09T14:14:59.763Z,27.60
2018-06-09T14:17:27.973Z,27.50
2018-06-09T14:19:56.179Z,27.50
2018-06-09T14:22:24.384Z,27.40
2018-06-09T14:24:52.577Z,27.40
2018-06-09T14:27:20.776Z,27.30
2018-06-09T14:29:49.005Z,27.30
2018-06-09T14:32:17.224Z,27.30
2018-06-09T14:34:45.419Z,27.30
2018-06-09T14:37:13.638Z,27.30
2018-06-09T14:39:41.849Z,27.30
2018-06-09T14:42:10.084Z,27.30
2018-06-09T14:44:38.276Z,27.30
2018-06-09T14:47:06.477Z,27.30
2018-06-09T14:49:34.677Z,27.30
2018-06-09T14:52:02.905Z,27.30
2018-06-09T14:54:31.100Z,27.30
2018-06-09T14:56:59.303Z,27.30
2018-06-09T14:59:27.509Z,27.30
2018-06-09T15:01:55.717Z,27.20
2018-06-09T15:04:24.636Z,27.20
2018-06-09T15:06:52.877Z,27.10
2018-06-09T15:09:21.059Z,27.10
2018-06-09T15:11:49.278Z,27.10
2018-06-09T15:14:17.503Z,27.10
2018-06-09T15:16:45.748Z,27.10
2018-06-09T15:19:13.955Z,27.10
2018-06-09T15:21:42.163Z,27.00
2018-06-09T15:24:10.368Z,27.00
2018-06-09T15:26:38.571Z,27.00
2018-06-09T15:29:06.937Z,26.90
2018-06-09T15:31:35.203Z,26.90
2018-06-09T15:34:03.434Z,26.90
2018-06-09T15:36:31.636Z,26.90
2018-06-09T15:38:59.852Z,26.90
2018-06-09T15:41:28.124Z,27.00
2018-06-09T15:43:56.353Z,27.00
2018-06-09T15:46:24.560Z,27.00
2018-06-09T15:48:52.799Z,26.90
2018-06-09T15:51:21.015Z,26.80
2018-06-09T15:53:49.436Z,26.70
2018-06-09T15:56:17.676Z,26.60
2018-06-09T15:58:45.928Z,26.50
2018-06-09T16:01:14.176Z,26.30
2018-06-09T16:03:42.968Z,26.20
2018-06-09T16:06:11.196Z,26.10
2018-06-09T16:08:39.405Z,26.00
2018-06-09T16:11:07.613Z,26.00
2018-06-09T16:13:35.854Z,25.90
2018-06-09T16:16:04.097Z,25.80
2018-06-09T16:18:32.328Z,25.70
2018-06-09T16:21:00.584Z,25.70
2018-06-09T16:23:28.959Z,25.60
2018-06-09T16:25:57.145Z,25.60
2018-06-09T16:28:25.370Z,25.60
2018-06-09T16:30:53.605Z,25.60
2018-06-09T16:33:21.811Z,25.50
2018-06-09T16:35:50.011Z,25.50
2018-06-09T16:38:18.198Z,25.60
2018-06-09T16:40:46.388Z,25.60
2018-06-09T16:43:14.585Z,25.70
2018-06-09T16:45:42.825Z,25.60
2018-06-09T16:48:10.988Z,25.70
2018-06-09T16:50:39.192Z,25.60
2018-06-09T16:53:08.931Z,25.60
2018-06-09T16:58:05.172Z,25.50
2018-06-09T17:00:33.406Z,25.50
2018-06-09T17:03:01.590Z,25.50
2018-06-09T17:05:30.012Z,25.50
2018-06-09T17:07:58.242Z,25.40
2018-06-09T17:10:26.445Z,25.40
2018-06-09T17:12:54.652Z,25.30
2018-06-09T17:15:22.859Z,25.30
2018-06-09T17:17:51.074Z,25.30
2018-06-09T17:20:19.265Z,25.30
2018-06-09T17:22:47.502Z,25.30
2018-06-09T17:25:15.725Z,25.30
2018-06-09T17:27:44.080Z,25.30
2018-06-09T17:30:12.268Z,25.40
2018-06-09T17:32:40.491Z,25.50
2018-06-09T17:35:08.772Z,25.50
2018-06-09T17:37:36.984Z,25.50
2018-06-09T17:40:05.197Z,25.80
2018-06-09T17:42:33.463Z,26.40
2018-06-09T17:45:01.612Z,26.90
2018-06-09T17:47:30.440Z,27.10
2018-06-09T17:49:58.752Z,27.40
2018-06-09T17:52:27.018Z,27.00
2018-06-09T17:54:55.444Z,26.70
2018-06-09T17:57:23.674Z,26.40
2018-06-09T17:59:51.897Z,26.10
2018-06-09T18:02:20.093Z,25.90
2018-06-09T18:04:48.295Z,25.80
2018-06-09T18:07:16.493Z,25.70
2018-06-09T18:09:44.712Z,25.60
2018-06-09T18:12:12.926Z,25.60
2018-06-09T18:14:41.121Z,25.50
2018-06-09T18:17:09.324Z,25.40
2018-06-09T18:19:37.578Z,25.30
2018-06-09T18:22:05.774Z,25.20
2018-06-09T18:24:33.984Z,25.10
2018-06-09T18:27:02.179Z,25.00
2018-06-09T18:29:30.408Z,24.90
2018-06-09T18:31:58.611Z,24.90
2018-06-09T18:34:26.842Z,24.70
2018-06-09T18:36:55.029Z,24.60
2018-06-09T18:39:23.262Z,24.40
2018-06-09T18:41:51.494Z,24.20
2018-06-09T18:44:19.698Z,24.20
2018-06-09T18:46:47.917Z,24.10
2018-06-09T18:49:16.133Z,24.10
2018-06-09T18:51:44.345Z,24.20
2018-06-09T18:54:12.552Z,24.20
2018-06-09T18:56:40.748Z,24.20
2018-06-09T18:59:08.996Z,24.10
2018-06-09T19:01:37.242Z,24.20
2018-06-09T19:04:05.752Z,24.20
2018-06-09T19:06:33.970Z,24.20
2018-06-09T19:09:02.380Z,24.10
2018-06-09T19:11:30.608Z,23.90
2018-06-09T19:13:58.812Z,23.80
2018-06-09T19:16:27.029Z,23.80
2018-06-09T19:18:55.229Z,23.80
2018-06-09T19:21:23.431Z,23.70
2018-06-09T19:23:51.628Z,23.60
2018-06-09T19:26:19.880Z,23.50
2018-06-09T19:28:48.098Z,23.50
2018-06-09T19:31:16.297Z,23.60
2018-06-09T19:33:44.521Z,23.60
2018-06-09T19:36:12.732Z,23.70
2018-06-09T19:38:40.904Z,23.70
2018-06-09T19:41:09.137Z,23.60
2018-06-09T19:43:37.401Z,23.50
2018-06-09T19:46:05.552Z,23.40
2018-06-09T19:48:34.765Z,23.40
2018-06-09T19:51:03.000Z,23.30
2018-06-09T19:53:31.207Z,23.30
2018-06-09T19:55:59.420Z,23.20
2018-06-09T19:58:27.649Z,23.20
2018-06-09T20:00:55.864Z,23.10
2018-06-09T20:03:24.106Z,23.00
2018-06-09T20:05:52.288Z,23.00
2018-06-09T20:08:20.486Z,22.90
2018-06-09T20:10:48.680Z,22.90
2018-06-09T20:13:16.879Z,22.90
2018-06-09T20:15:45.092Z,22.90
2018-06-09T20:18:13.292Z,22.80
2018-06-09T20:20:41.491Z,22.90
2018-06-09T20:23:09.727Z,22.80
2018-06-09T20:25:37.924Z,22.70
2018-06-09T20:28:06.320Z,22.80
2018-06-09T20:30:34.538Z,22.80
2018-06-09T20:33:02.776Z,22.90
2018-06-09T20:35:30.963Z,22.90
2018-06-09T20:37:59.169Z,22.90
2018-06-09T20:40:28.443Z,22.90
2018-06-09T20:42:56.692Z,22.90
2018-06-09T20:45:24.981Z,22.80
2018-06-09T20:47:53.213Z,22.80
2018-06-09T20:50:21.533Z,22.80
2018-06-09T20:52:49.748Z,22.80
2018-06-09T20:55:18.018Z,22.80
2018-06-09T20:57:46.393Z,22.80
2018-06-09T21:00:14.633Z,22.80
2018-06-09T21:02:43.464Z,22.80
2018-06-09T21:05:11.668Z,22.80
2018-06-09T21:07:39.921Z,22.80
2018-06-09T21:10:08.143Z,22.80
2018-06-09T21:12:36.337Z,22.70
2018-06-09T21:15:04.548Z,22.70
2018-06-09T21:17:32.733Z,22.70
2018-06-09T21:20:00.976Z,22.60
2018-06-09T21:22:29.167Z,22.60
2018-06-09T21:24:57.390Z,22.60
2018-06-09T21:27:33.665Z,22.70
2018-06-09T21:30:10.188Z,22.60
2018-06-09T21:32:46.038Z,22.60
2018-06-09T21:35:31.051Z,22.60
2018-06-09T21:38:04.692Z,22.60
2018-06-09T21:40:38.047Z,22.50
2018-06-09T21:43:11.663Z,22.60
2018-06-09T21:45:45.252Z,22.60
2018-06-09T21:48:13.522Z,22.50
2018-06-09T21:50:41.734Z,22.50
2018-06-09T21:53:09.936Z,22.50
2018-06-09T21:55:38.141Z,22.50
2018-06-09T21:58:06.464Z,22.50
2018-06-09T22:00:34.672Z,22.50
2018-06-09T22:03:02.989Z,22.50
2018-06-09T22:05:31.196Z,22.50
2018-06-09T22:07:59.404Z,22.40
2018-06-09T22:10:27.647Z,22.40
2018-06-09T22:12:55.851Z,22.40
2018-06-09T22:15:24.065Z,22.40
2018-06-09T22:17:52.289Z,22.40
2018-06-09T22:20:20.552Z,22.40
2018-06-09T22:22:48.748Z,22.40
2018-06-09T22:25:22.286Z,22.40
2018-06-09T22:30:18.463Z,22.30
2018-06-09T22:32:46.672Z,22.40
2018-06-09T22:35:14.870Z,22.40
2018-06-09T22:37:43.092Z,22.30
2018-06-09T22:40:11.324Z,22.30
2018-06-09T22:45:07.509Z,22.30
2018-06-09T22:47:35.730Z,22.20
2018-06-09T22:50:04.123Z,22.30
2018-06-09T22:52:32.339Z,22.20
2018-06-09T22:55:00.540Z,22.20
2018-06-09T22:57:28.770Z,22.20
2018-06-09T22:59:56.976Z,22.20
2018-06-09T23:02:25.241Z,22.20
2018-06-09T23:04:53.373Z,22.30
2018-06-09T23:07:21.598Z,22.20
2018-06-09T23:09:49.808Z,22.20
2018-06-09T23:12:18.025Z,22.20
2018-06-09T23:14:46.253Z,22.20
2018-06-09T23:19:42.416Z,22.20
2018-06-09T23:22:10.618Z,22.20
2018-06-09T23:24:38.824Z,22.20
2018-06-09T23:27:07.032Z,22.20
2018-06-09T23:29:35.301Z,22.20
2018-06-09T23:32:03.660Z,22.20
2018-06-09T23:34:31.876Z,22.20
2018-06-09T23:37:00.067Z,22.20
2018-06-09T23:39:28.280Z,22.20
2018-06-09T23:41:56.501Z,22.10
2018-06-09T23:44:24.701Z,22.00
2018-06-09T23:46:53.011Z,21.90
2018-06-09T23:49:21.214Z,21.80
2018-06-09T23:51:49.425Z,21.70
2018-06-09T23:54:17.624Z,21.80
2018-06-09T23:56:45.833Z,21.80
2018-06-09T23:59:14.048Z,21.90
